createdAt,value
2018-04-22T00:00:36.485Z,939.00
2018-04-22T00:01:36.487Z,938.96
2018-04-22T00:02:36.490Z,938.94
2018-04-22T00:03:36.493Z,938.93
2018-04-22T00:04:36.496Z,938.92
2018-04-22T00:05:36.496Z,938.95
2018-04-22T00:06:36.504Z,938.93
2018-04-22T00:07:36.502Z,938.93
2018-04-22T00:08:36.506Z,938.93
2018-04-22T00:09:36.506Z,938.92
2018-04-22T00:10:36.510Z,938.92
2018-04-22T00:11:36.512Z,938.91
2018-04-22T00:12:36.516Z,938.90
2018-04-22T00:13:36.517Z,938.90
2018-04-22T00:14:36.520Z,938.92
2018-04-22T00:15:36.525Z,938.91
2018-04-22T00:16:36.525Z,938.90
2018-04-22T00:17:36.525Z,938.90
2018-04-22T00:18:36.532Z,938.93
2018-04-22T00:19:36.530Z,938.88
2018-04-22T00:20:36.534Z,938.91
2018-04-22T00:21:36.535Z,938.90
2018-04-22T00:22:36.538Z,938.90
2018-04-22T00:23:36.541Z,938.87
2018-04-22T00:24:36.543Z,938.89
2018-04-22T00:25:36.544Z,938.84
2018-04-22T00:26:36.547Z,938.88
2018-04-22T00:27:36.549Z,938.86
2018-04-22T00:28:36.553Z,938.86
2018-04-22T00:29:36.553Z,938.83
2018-04-22T00:30:36.558Z,938.85
2018-04-22T00:31:36.558Z,938.84
2018-04-22T00:32:36.561Z,938.85
2018-04-22T00:33:36.562Z,938.84
2018-04-22T00:34:36.565Z,938.84
2018-04-22T00:35:36.567Z,938.81
2018-04-22T00:36:36.571Z,938.81
2018-04-22T00:37:36.570Z,938.82
2018-04-22T00:38:36.574Z,938.80
2018-04-22T00:39:36.576Z,938.84
2018-04-22T00:40:36.580Z,938.81
2018-04-22T00:41:36.579Z,938.76
2018-04-22T00:42:36.588Z,938.76
2018-04-22T00:43:36.584Z,938.75
2018-04-22T00:44:36.588Z,938.77
2018-04-22T00:45:36.589Z,938.76
2018-04-22T00:46:36.594Z,938.72
2018-04-22T00:47:36.594Z,938.73
2018-04-22T00:48:36.597Z,938.68
2018-04-22T00:49:36.597Z,938.69
2018-04-22T00:50:36.601Z,938.67
2018-04-22T00:51:36.605Z,938.68
2018-04-22T00:52:36.604Z,938.70
2018-04-22T00:53:36.606Z,938.67
2018-04-22T00:54:36.609Z,938.68
2018-04-22T00:55:36.611Z,938.68
2018-04-22T00:56:36.615Z,938.64
2018-04-22T00:57:36.615Z,938.67
2018-04-22T00:58:36.616Z,938.66
2018-04-22T00:59:36.619Z,938.68
2018-04-22T01:00:36.621Z,938.63
2018-04-22T01:01:36.625Z,938.64
2018-04-22T01:02:36.625Z,938.59
2018-04-22T01:03:36.627Z,938.60
2018-04-22T01:04:36.630Z,938.60
2018-04-22T01:05:36.631Z,938.61
2018-04-22T01:06:36.632Z,938.62
2018-04-22T01:07:36.636Z,938.57
2018-04-22T01:08:36.639Z,938.59
2018-04-22T01:09:36.638Z,938.61
2018-04-22T01:10:36.643Z,938.55
2018-04-22T01:11:36.642Z,938.57
2018-04-22T01:12:36.644Z,938.54
2018-04-22T01:13:36.646Z,938.55
2018-04-22T01:14:36.646Z,938.51
2018-04-22T01:15:36.650Z,938.52
2018-04-22T01:16:36.652Z,938.52
2018-04-22T01:17:36.654Z,938.52
2018-04-22T01:18:36.654Z,938.54
2018-04-22T01:19:36.662Z,938.52
2018-04-22T01:20:36.659Z,938.48
2018-04-22T01:21:36.662Z,938.48
2018-04-22T01:22:36.664Z,938.45
2018-04-22T01:23:36.664Z,938.50
2018-04-22T01:24:36.668Z,938.49
2018-04-22T01:25:36.668Z,938.45
2018-04-22T01:26:36.673Z,938.43
2018-04-22T01:27:36.674Z,938.44
2018-04-22T01:28:36.677Z,938.44
2018-04-22T01:29:36.678Z,938.41
2018-04-22T01:30:36.680Z,938.44
2018-04-22T01:31:36.682Z,938.40
2018-04-22T01:32:36.683Z,938.46
2018-04-22T01:33:36.688Z,938.42
2018-04-22T01:34:36.688Z,938.42
2018-04-22T01:35:36.690Z,938.44
2018-04-22T01:36:36.692Z,938.42
2018-04-22T01:37:36.694Z,938.45
2018-04-22T01:38:36.694Z,938.42
2018-04-22T01:39:36.698Z,938.38
2018-04-22T01:40:36.701Z,938.35
2018-04-22T01:41:36.702Z,938.35
2018-04-22T01:42:36.703Z,938.33
2018-04-22T01:43:36.706Z,938.33
2018-04-22T01:44:36.707Z,938.30
2018-04-22T01:45:36.710Z,938.33
2018-04-22T01:46:36.710Z,938.32
2018-04-22T01:47:36.713Z,938.35
2018-04-22T01:48:36.715Z,938.33
2018-04-22T01:49:36.717Z,938.30
2018-04-22T01:50:36.719Z,938.34
2018-04-22T01:51:36.721Z,938.29
2018-04-22T01:52:36.722Z,938.32
2018-04-22T01:53:36.726Z,938.25
2018-04-22T01:54:36.727Z,938.28
2018-04-22T01:55:36.726Z,938.28
2018-04-22T01:56:36.730Z,938.26
2018-04-22T01:57:36.730Z,938.26
2018-04-22T01:58:36.734Z,938.26
2018-04-22T01:59:36.735Z,938.27
2018-04-22T02:00:36.737Z,938.26
2018-04-22T02:01:36.739Z,938.25
2018-04-22T02:02:36.740Z,938.28
2018-04-22T02:03:36.741Z,938.26
2018-04-22T02:04:36.768Z,938.24
2018-04-22T02:05:36.744Z,938.29
2018-04-22T02:06:36.746Z,938.27
2018-04-22T02:07:36.748Z,938.25
2018-04-22T02:08:36.750Z,938.28
2018-04-22T02:09:36.751Z,938.27
2018-04-22T02:10:36.752Z,938.26
2018-04-22T02:11:36.755Z,938.28
2018-04-22T02:12:36.756Z,938.27
2018-04-22T02:13:36.757Z,938.24
2018-04-22T02:14:36.802Z,938.19
2018-04-22T02:15:36.762Z,938.20
2018-04-22T02:16:36.762Z,938.21
2018-04-22T02:17:36.763Z,938.18
2018-04-22T02:18:36.765Z,938.22
2018-04-22T02:19:36.768Z,938.18
2018-04-22T02:20:36.771Z,938.17
2018-04-22T02:21:36.775Z,938.19
2018-04-22T02:22:36.774Z,938.13
2018-04-22T02:23:36.774Z,938.16
2018-04-22T02:24:36.777Z,938.17
2018-04-22T02:25:36.778Z,938.15
2018-04-22T02:26:36.780Z,938.14
2018-04-22T02:27:36.782Z,938.15
2018-04-22T02:28:36.784Z,938.12
2018-04-22T02:29:36.783Z,938.12
2018-04-22T02:30:36.786Z,938.11
2018-04-22T02:31:36.789Z,938.08
2018-04-22T02:32:36.791Z,938.09
2018-04-22T02:33:36.791Z,938.12
2018-04-22T02:34:36.793Z,938.10
2018-04-22T02:35:36.793Z,938.08
2018-04-22T02:36:36.794Z,938.10
2018-04-22T02:37:36.798Z,938.09
2018-04-22T02:38:36.798Z,938.03
2018-04-22T02:39:36.806Z,938.05
2018-04-22T02:40:36.802Z,938.06
2018-04-22T02:41:36.802Z,938.04
2018-04-22T02:42:36.806Z,938.05
2018-04-22T02:43:36.850Z,938.02
2018-04-22T02:44:36.806Z,938.01
2018-04-22T02:45:36.807Z,938.04
2018-04-22T02:46:36.808Z,938.02
2018-04-22T02:47:36.810Z,938.05
2018-04-22T02:48:36.811Z,938.05
2018-04-22T02:49:36.812Z,938.01
2018-04-22T02:50:36.813Z,938.04
2018-04-22T02:51:36.816Z,938.00
2018-04-22T02:52:36.818Z,938.02
2018-04-22T02:53:36.818Z,938.00
2018-04-22T02:54:36.820Z,937.99
2018-04-22T02:55:36.821Z,937.97
2018-04-22T02:56:36.823Z,938.00
2018-04-22T02:57:36.823Z,937.97
2018-04-22T02:58:36.827Z,937.99
2018-04-22T02:59:36.827Z,937.97
2018-04-22T03:00:36.827Z,937.97
2018-04-22T03:01:36.829Z,937.98
2018-04-22T03:02:36.831Z,937.98
2018-04-22T03:03:36.833Z,937.94
2018-04-22T03:04:36.834Z,937.93
2018-04-22T03:05:36.835Z,937.95
2018-04-22T03:06:36.838Z,937.94
2018-04-22T03:07:36.838Z,937.95
2018-04-22T03:08:36.838Z,937.91
2018-04-22T03:09:36.839Z,937.95
2018-04-22T03:10:36.842Z,937.93
2018-04-22T03:11:36.842Z,937.92
2018-04-22T03:12:36.845Z,937.93
2018-04-22T03:13:36.846Z,937.91
2018-04-22T03:14:36.847Z,937.91
2018-04-22T03:15:36.848Z,937.93
2018-04-22T03:16:36.851Z,937.91
2018-04-22T03:17:36.851Z,937.94
2018-04-22T03:18:36.851Z,937.94
2018-04-22T03:19:36.854Z,937.97
2018-04-22T03:20:36.855Z,938.01
2018-04-22T03:21:36.856Z,938.01
2018-04-22T03:22:36.857Z,937.99
2018-04-22T03:23:36.859Z,937.95
2018-04-22T03:24:36.861Z,937.98
2018-04-22T03:25:36.861Z,938.02
2018-04-22T03:26:36.861Z,937.94
2018-04-22T03:27:36.864Z,937.99
2018-04-22T03:28:36.865Z,937.96
2018-04-22T03:29:36.865Z,937.94
2018-04-22T03:30:36.869Z,938.00
2018-04-22T03:31:36.869Z,937.97
2018-04-22T03:32:36.871Z,937.96
2018-04-22T03:33:36.871Z,938.00
2018-04-22T03:34:36.873Z,938.03
2018-04-22T03:35:36.873Z,937.97
2018-04-22T03:36:36.875Z,937.99
2018-04-22T03:37:36.878Z,938.02
2018-04-22T03:38:36.878Z,937.98
2018-04-22T03:39:36.880Z,938.01
2018-04-22T03:40:36.886Z,937.97
2018-04-22T03:41:36.887Z,937.98
2018-04-22T03:42:36.933Z,938.04
2018-04-22T03:43:36.884Z,937.99
2018-04-22T03:44:36.887Z,938.02
2018-04-22T03:45:36.887Z,937.96
2018-04-22T03:46:36.889Z,937.95
2018-04-22T03:47:36.890Z,937.96
2018-04-22T03:48:36.892Z,937.96
2018-04-22T03:49:36.895Z,937.98
2018-04-22T03:50:36.894Z,937.99
2018-04-22T03:51:36.898Z,937.97
2018-04-22T03:52:36.943Z,937.97
2018-04-22T03:53:36.899Z,937.99
2018-04-22T03:54:36.899Z,937.96
2018-04-22T03:55:36.901Z,937.94
2018-04-22T03:57:36.905Z,937.92
2018-04-22T03:58:36.902Z,937.86
2018-04-22T03:59:36.904Z,937.90
2018-04-22T04:00:36.907Z,937.89
2018-04-22T04:01:36.907Z,937.89
2018-04-22T04:02:36.908Z,937.89
2018-04-22T04:03:36.909Z,937.86
2018-04-22T04:04:36.910Z,937.91
2018-04-22T04:05:36.913Z,937.88
2018-04-22T04:06:36.912Z,937.93
2018-04-22T04:07:36.913Z,937.92
2018-04-22T04:08:36.915Z,937.96
2018-04-22T04:09:36.916Z,937.96
2018-04-22T04:10:36.915Z,937.95
2018-04-22T04:11:36.918Z,937.99
2018-04-22T04:12:36.920Z,937.97
2018-04-22T04:13:36.919Z,937.96
2018-04-22T04:14:36.921Z,938.02
2018-04-22T04:15:36.923Z,938.00
2018-04-22T04:16:36.926Z,938.00
2018-04-22T04:17:36.925Z,938.01
2018-04-22T04:18:36.928Z,938.01
2018-04-22T04:19:36.928Z,938.00
2018-04-22T04:20:36.929Z,938.03
2018-04-22T04:21:36.929Z,938.01
2018-04-22T04:22:36.931Z,938.02
2018-04-22T04:23:36.931Z,938.01
2018-04-22T04:24:36.933Z,938.00
2018-04-22T04:25:36.933Z,937.97
2018-04-22T04:26:36.935Z,937.98
2018-04-22T04:27:36.936Z,937.99
2018-04-22T04:28:36.937Z,937.99
2018-04-22T04:29:36.936Z,938.02
2018-04-22T04:30:36.938Z,938.00
2018-04-22T04:31:36.939Z,937.99
2018-04-22T04:32:36.941Z,937.98
2018-04-22T04:33:36.942Z,938.02
2018-04-22T04:34:36.944Z,938.00
2018-04-22T04:35:36.945Z,938.02
2018-04-22T04:36:36.945Z,938.03
2018-04-22T04:37:36.944Z,938.01
2018-04-22T04:38:36.944Z,938.04
2018-04-22T04:39:36.947Z,938.03
2018-04-22T04:40:36.953Z,938.08
2018-04-22T04:41:36.948Z,938.05
2018-04-22T04:42:36.951Z,938.07
2018-04-22T04:43:36.949Z,938.12
2018-04-22T04:44:36.954Z,938.18
2018-04-22T04:45:36.952Z,938.12
2018-04-22T04:46:36.954Z,938.14
2018-04-22T04:47:36.955Z,938.16
2018-04-22T04:48:36.959Z,938.20
2018-04-22T04:49:36.957Z,938.21
2018-04-22T04:50:36.956Z,938.19
2018-04-22T04:51:36.959Z,938.27
2018-04-22T04:52:36.960Z,938.22
2018-04-22T04:53:36.960Z,938.25
2018-04-22T04:54:36.962Z,938.23
2018-04-22T04:55:36.962Z,938.24
2018-04-22T04:56:36.966Z,938.22
2018-04-22T04:57:36.965Z,938.22
2018-04-22T04:58:36.968Z,938.25
2018-04-22T04:59:36.967Z,938.25
2018-04-22T05:00:36.968Z,938.25
2018-04-22T05:01:36.969Z,938.21
2018-04-22T05:02:36.971Z,938.23
2018-04-22T05:03:36.970Z,938.25
2018-04-22T05:04:36.975Z,938.25
2018-04-22T05:05:36.974Z,938.26
2018-04-22T05:06:36.976Z,938.25
2018-04-22T05:07:36.975Z,938.30
2018-04-22T05:08:36.977Z,938.25
2018-04-22T05:09:36.980Z,938.30
2018-04-22T05:10:36.999Z,938.28
2018-04-22T05:11:36.980Z,938.30
2018-04-22T05:12:36.980Z,938.29
2018-04-22T05:13:36.982Z,938.31
2018-04-22T05:14:36.981Z,938.31
2018-04-22T05:15:36.984Z,938.31
2018-04-22T05:16:36.984Z,938.34
2018-04-22T05:17:36.984Z,938.34
2018-04-22T05:18:36.987Z,938.38
2018-04-22T05:19:36.996Z,938.38
2018-04-22T05:20:36.990Z,938.33
2018-04-22T05:21:36.995Z,938.36
2018-04-22T05:22:36.992Z,938.38
2018-04-22T05:23:36.992Z,938.37
2018-04-22T05:24:37.004Z,938.37
2018-04-22T05:25:36.996Z,938.35
2018-04-22T05:26:36.996Z,938.35
2018-04-22T05:27:36.998Z,938.34
2018-04-22T05:28:37.000Z,938.34
2018-04-22T05:29:37.001Z,938.39
2018-04-22T05:30:37.001Z,938.36
2018-04-22T05:31:37.004Z,938.33
2018-04-22T05:32:37.008Z,938.36
2018-04-22T05:33:37.007Z,938.38
2018-04-22T05:34:37.012Z,938.35
2018-04-22T05:35:37.011Z,938.40
2018-04-22T05:36:37.012Z,938.39
2018-04-22T05:37:37.012Z,938.37
2018-04-22T05:38:37.014Z,938.43
2018-04-22T05:39:37.016Z,938.39
2018-04-22T05:40:37.018Z,938.43
2018-04-22T05:41:37.018Z,938.43
2018-04-22T05:42:37.024Z,938.41
2018-04-22T05:43:37.023Z,938.42
2018-04-22T05:44:37.025Z,938.43
2018-04-22T05:45:37.025Z,938.42
2018-04-22T05:46:37.028Z,938.41
2018-04-22T05:47:37.028Z,938.43
2018-04-22T05:48:37.030Z,938.43
2018-04-22T05:49:37.032Z,938.44
2018-04-22T05:50:37.035Z,938.42
2018-04-22T05:51:37.037Z,938.46
2018-04-22T05:52:37.039Z,938.45
2018-04-22T05:53:37.040Z,938.48
2018-04-22T05:54:37.042Z,938.44
2018-04-22T05:55:37.044Z,938.44
2018-04-22T05:56:37.048Z,938.44
2018-04-22T05:57:37.048Z,938.49
2018-04-22T05:59:37.053Z,938.44
2018-04-22T06:00:37.054Z,938.45
2018-04-22T06:01:37.061Z,938.46
2018-04-22T06:02:37.059Z,938.45
2018-04-22T06:03:37.060Z,938.44
2018-04-22T06:04:37.065Z,938.38
2018-04-22T06:05:37.066Z,938.43
2018-04-22T06:06:37.068Z,938.44
2018-04-22T06:07:37.071Z,938.41
2018-04-22T06:08:37.076Z,938.37
2018-04-22T06:09:37.074Z,938.37
2018-04-22T06:10:37.077Z,938.38
2018-04-22T06:11:37.086Z,938.40
2018-04-22T06:12:37.082Z,938.39
2018-04-22T06:13:37.085Z,938.43
2018-04-22T06:14:37.088Z,938.37
2018-04-22T06:15:37.090Z,938.35
2018-04-22T06:16:37.092Z,938.36
2018-04-22T06:17:37.099Z,938.35
2018-04-22T06:18:37.098Z,938.35
2018-04-22T06:19:37.101Z,938.38
2018-04-22T06:20:37.103Z,938.38
2018-04-22T06:21:37.106Z,938.32
2018-04-22T06:22:37.109Z,938.34
2018-04-22T06:23:37.112Z,938.34
2018-04-22T06:24:37.118Z,938.35
2018-04-22T06:25:37.119Z,938.34
2018-04-22T06:26:37.121Z,938.33
2018-04-22T06:27:37.123Z,938.33
2018-04-22T06:28:37.129Z,938.40
2018-04-22T06:29:37.135Z,938.32
2018-04-22T06:30:37.133Z,938.31
2018-04-22T06:31:37.136Z,938.31
2018-04-22T06:32:37.145Z,938.28
2018-04-22T06:33:37.196Z,938.36
2018-04-22T06:34:37.147Z,938.29
2018-04-22T06:35:37.150Z,938.30
2018-04-22T06:36:37.157Z,938.31
2018-04-22T06:37:37.156Z,938.26
2018-04-22T06:38:37.158Z,938.25
2018-04-22T06:39:37.163Z,938.23
2018-04-22T06:40:37.167Z,938.28
2018-04-22T06:41:37.170Z,938.40
2018-04-22T06:42:37.173Z,938.54
2018-04-22T06:43:37.177Z,938.65
2018-04-22T06:44:37.183Z,938.62
2018-04-22T06:45:37.187Z,938.69
2018-04-22T06:46:37.191Z,938.69
2018-04-22T06:47:37.198Z,938.62
2018-04-22T06:48:37.206Z,938.65
2018-04-22T06:49:37.213Z,938.70
2018-04-22T06:50:37.221Z,938.72
2018-04-22T06:51:37.231Z,938.82
2018-04-22T06:52:37.241Z,938.83
2018-04-22T06:53:37.251Z,938.89
2018-04-22T06:54:37.261Z,938.86
2018-04-22T06:55:37.272Z,938.77
2018-04-22T06:56:37.285Z,938.79
2018-04-22T06:57:37.296Z,938.73
2018-04-22T06:58:37.308Z,938.76
2018-04-22T06:59:37.324Z,938.84
2018-04-22T07:00:37.337Z,938.89
2018-04-22T07:01:37.347Z,938.97
2018-04-22T07:02:37.362Z,938.90
2018-04-22T07:03:37.374Z,938.85
2018-04-22T07:04:37.388Z,938.81
2018-04-22T07:05:37.400Z,938.78
2018-04-22T07:06:37.417Z,938.78
2018-04-22T07:07:37.430Z,938.70
2018-04-22T07:08:37.443Z,938.72
2018-04-22T07:09:37.456Z,938.65
2018-04-22T07:10:37.470Z,938.61
2018-04-22T07:11:37.485Z,938.60
2018-04-22T07:12:37.497Z,938.65
2018-04-22T07:13:37.511Z,938.60
2018-04-22T07:14:37.524Z,938.61
2018-04-22T07:15:37.538Z,938.62
2018-04-22T07:16:37.601Z,938.59
2018-04-22T07:17:37.559Z,938.55
2018-04-22T07:18:37.570Z,938.56
2018-04-22T07:19:37.585Z,938.57
2018-04-22T07:20:37.592Z,938.59
2018-04-22T07:21:37.603Z,938.65
2018-04-22T07:22:37.618Z,938.69
2018-04-22T07:23:37.625Z,938.78
2018-04-22T07:24:37.638Z,938.71
2018-04-22T07:25:37.645Z,938.63
2018-04-22T07:26:37.654Z,938.57
2018-04-22T07:27:37.663Z,938.58
2018-04-22T07:28:37.674Z,938.55
2018-04-22T07:29:37.685Z,938.59
2018-04-22T07:30:37.691Z,938.60
2018-04-22T07:31:37.700Z,938.62
2018-04-22T07:32:37.710Z,938.59
2018-04-22T07:33:37.716Z,938.60
2018-04-22T07:34:37.727Z,938.61
2018-04-22T07:35:37.735Z,938.60
2018-04-22T07:36:37.745Z,938.58
2018-04-22T07:37:37.754Z,938.57
2018-04-22T07:38:37.761Z,938.68
2018-04-22T07:39:37.769Z,938.74
2018-04-22T07:40:37.791Z,938.72
2018-04-22T07:41:37.785Z,938.69
2018-04-22T07:42:37.808Z,938.65
2018-04-22T07:43:37.803Z,938.69
2018-04-22T07:44:37.813Z,938.71
2018-04-22T07:45:37.819Z,938.72
2018-04-22T07:46:37.828Z,938.64
2018-04-22T07:47:37.837Z,938.62
2018-04-22T07:48:37.845Z,938.63
2018-04-22T07:49:37.853Z,938.58
2018-04-22T07:50:37.861Z,938.62
2018-04-22T07:51:37.872Z,938.61
2018-04-22T07:52:37.879Z,938.60
2018-04-22T07:53:37.886Z,938.60
2018-04-22T07:54:37.895Z,938.55
2018-04-22T07:55:37.903Z,938.58
2018-04-22T07:56:37.915Z,938.69
2018-04-22T07:57:37.922Z,938.75
2018-04-22T07:58:37.929Z,938.76
2018-04-22T07:59:37.939Z,938.73
2018-04-22T08:00:37.949Z,938.69
2018-04-22T08:01:37.958Z,938.70
2018-04-22T08:02:37.967Z,938.74
2018-04-22T08:03:37.977Z,938.77
2018-04-22T08:04:37.989Z,938.75
2018-04-22T08:05:37.996Z,938.75
2018-04-22T08:06:38.012Z,938.72
2018-04-22T08:07:38.020Z,938.71
2018-04-22T08:08:38.032Z,938.76
2018-04-22T08:09:38.042Z,938.74
2018-04-22T08:10:38.054Z,938.75
2018-04-22T08:11:38.065Z,938.81
2018-04-22T08:12:38.077Z,938.80
2018-04-22T08:13:38.089Z,938.76
2018-04-22T08:14:38.102Z,938.74
2018-04-22T08:15:38.115Z,938.74
2018-04-22T08:16:38.128Z,938.72
2018-04-22T08:17:38.141Z,938.72
2018-04-22T08:18:38.155Z,938.76
2018-04-22T08:19:38.169Z,938.73
2018-04-22T08:20:38.185Z,938.72
2018-04-22T08:21:38.199Z,938.70
2018-04-22T08:22:38.214Z,938.69
2018-04-22T08:23:38.229Z,938.63
2018-04-22T08:24:38.244Z,938.65
2018-04-22T08:25:38.259Z,938.66
2018-04-22T08:26:38.273Z,938.64
2018-04-22T08:27:38.288Z,938.67
2018-04-22T08:28:38.301Z,938.72
2018-04-22T08:29:38.323Z,938.67
2018-04-22T08:30:38.329Z,938.65
2018-04-22T08:31:38.343Z,938.68
2018-04-22T08:32:38.357Z,938.66
2018-04-22T08:33:38.370Z,938.64
2018-04-22T08:34:38.385Z,938.63
2018-04-22T08:35:38.401Z,938.66
2018-04-22T08:36:38.412Z,938.63
2018-04-22T08:37:38.423Z,938.59
2018-04-22T08:38:38.437Z,938.56
2018-04-22T08:39:38.451Z,938.56
2018-04-22T08:40:38.463Z,938.60
2018-04-22T08:41:38.476Z,938.54
2018-04-22T08:42:38.489Z,938.53
2018-04-22T08:43:38.501Z,938.51
2018-04-22T08:44:38.514Z,938.47
2018-04-22T08:45:38.525Z,938.48
2018-04-22T08:46:38.535Z,938.49
2018-04-22T08:47:38.547Z,938.45
2018-04-22T08:48:38.562Z,938.51
2018-04-22T08:49:38.569Z,938.48
2018-04-22T08:50:38.643Z,938.50
2018-04-22T08:51:38.592Z,938.55
2018-04-22T08:52:38.603Z,938.54
2018-04-22T08:53:38.616Z,938.52
2018-04-22T08:54:38.629Z,938.49
2018-04-22T08:55:38.649Z,938.51
2018-04-22T08:56:38.705Z,938.53
2018-04-22T08:57:38.667Z,938.54
2018-04-22T08:58:38.679Z,938.58
2018-04-22T08:59:38.693Z,938.56
2018-04-22T09:00:38.706Z,938.56
2018-04-22T09:01:38.720Z,938.58
2018-04-22T09:02:38.735Z,938.61
2018-04-22T09:03:38.752Z,938.57
2018-04-22T09:04:38.769Z,938.58
2018-04-22T09:05:38.784Z,938.55
2018-04-22T09:06:38.839Z,938.56
2018-04-22T09:07:38.814Z,938.59
2018-04-22T09:08:38.830Z,938.59
2018-04-22T09:09:38.846Z,938.60
2018-04-22T09:10:38.863Z,938.59
2018-04-22T09:11:38.879Z,938.61
2018-04-22T09:12:38.897Z,938.60
2018-04-22T09:13:38.913Z,938.59
2018-04-22T09:14:38.931Z,938.57
2018-04-22T09:15:38.948Z,938.60
2018-04-22T09:16:38.965Z,938.62
2018-04-22T09:17:38.982Z,938.59
2018-04-22T09:18:39.000Z,938.60
2018-04-22T09:19:39.018Z,938.57
2018-04-22T09:20:39.037Z,938.58
2018-04-22T09:21:39.055Z,938.57
2018-04-22T09:22:39.072Z,938.59
2018-04-22T09:23:39.091Z,938.57
2018-04-22T09:24:39.112Z,938.59
2018-04-22T09:25:39.126Z,938.51
2018-04-22T09:26:39.145Z,938.52
2018-04-22T09:27:39.165Z,938.54
2018-04-22T09:28:39.183Z,938.55
2018-04-22T09:29:39.204Z,938.51
2018-04-22T09:30:39.222Z,938.51
2018-04-22T09:31:39.238Z,938.53
2018-04-22T09:32:39.255Z,938.46
2018-04-22T09:33:39.275Z,938.48
2018-04-22T09:34:39.293Z,938.43
2018-04-22T09:35:39.312Z,938.44
2018-04-22T09:36:39.335Z,938.44
2018-04-22T09:37:39.348Z,938.45
2018-04-22T09:38:39.368Z,938.45
2018-04-22T09:39:39.386Z,938.44
2018-04-22T09:40:39.405Z,938.44
2018-04-22T09:41:39.423Z,938.41
2018-04-22T09:42:39.442Z,938.41
2018-04-22T09:43:39.461Z,938.40
2018-04-22T09:44:39.479Z,938.40
2018-04-22T09:45:39.497Z,938.39
2018-04-22T09:46:39.519Z,938.33
2018-04-22T09:47:39.535Z,938.32
2018-04-22T09:48:39.554Z,938.35
2018-04-22T09:49:39.572Z,938.33
2018-04-22T09:50:39.589Z,938.32
2018-04-22T09:51:39.609Z,938.37
2018-04-22T09:52:39.627Z,938.36
2018-04-22T09:53:39.647Z,938.36
2018-04-22T09:54:39.663Z,938.30
2018-04-22T09:55:39.727Z,938.34
2018-04-22T09:56:39.700Z,938.31
2018-04-22T09:57:39.717Z,938.29
2018-04-22T09:58:39.736Z,938.29
2018-04-22T09:59:39.752Z,938.27
2018-04-22T10:00:39.771Z,938.29
2018-04-22T10:01:39.788Z,938.29
2018-04-22T10:02:39.806Z,938.28
2018-04-22T10:03:39.824Z,938.24
2018-04-22T10:04:39.842Z,938.22
2018-04-22T10:05:39.858Z,938.18
2018-04-22T10:06:39.876Z,938.22
2018-04-22T10:07:39.894Z,938.21
2018-04-22T10:08:39.913Z,938.22
2018-04-22T10:09:39.931Z,938.25
2018-04-22T10:10:39.946Z,938.24
2018-04-22T10:11:39.964Z,938.19
2018-04-22T10:12:39.980Z,938.17
2018-04-22T10:13:39.998Z,938.15
2018-04-22T10:14:40.016Z,938.17
2018-04-22T10:15:40.033Z,938.16
2018-04-22T10:16:40.055Z,938.16
2018-04-22T10:17:40.073Z,938.16
2018-04-22T10:18:40.085Z,938.14
2018-04-22T10:19:40.102Z,938.14
2018-04-22T10:20:40.118Z,938.14
2018-04-22T10:21:40.136Z,938.13
2018-04-22T10:22:40.153Z,938.14
2018-04-22T10:23:40.170Z,938.13
2018-04-22T10:24:40.190Z,938.16
2018-04-22T10:25:40.203Z,938.12
2018-04-22T10:26:40.221Z,938.06
2018-04-22T10:27:40.275Z,938.07
2018-04-22T10:28:40.261Z,938.09
2018-04-22T10:29:40.272Z,938.07
2018-04-22T10:30:40.290Z,937.96
2018-04-22T10:31:40.309Z,937.93
2018-04-22T10:32:40.323Z,937.92
2018-04-22T10:33:40.337Z,937.93
2018-04-22T10:34:40.364Z,937.97
2018-04-22T10:35:40.371Z,937.98
2018-04-22T10:36:40.385Z,937.99
2018-04-22T10:37:40.401Z,937.91
2018-04-22T10:38:40.416Z,937.94
2018-04-22T10:39:40.431Z,937.94
2018-04-22T10:40:40.448Z,937.92
2018-04-22T10:41:40.462Z,937.92
2018-04-22T10:42:40.477Z,937.92
2018-04-22T10:43:40.494Z,937.90
2018-04-22T10:44:40.509Z,937.90
2018-04-22T10:45:40.522Z,937.88
2018-04-22T10:46:40.588Z,937.87
2018-04-22T10:47:40.558Z,937.84
2018-04-22T10:48:40.570Z,937.84
2018-04-22T10:49:40.586Z,937.84
2018-04-22T10:50:40.601Z,937.85
2018-04-22T10:51:40.617Z,937.78
2018-04-22T10:52:40.631Z,937.82
2018-04-22T10:53:40.647Z,937.79
2018-04-22T10:54:40.663Z,937.83
2018-04-22T10:55:40.678Z,937.79
2018-04-22T10:56:40.693Z,937.80
2018-04-22T10:57:40.708Z,937.83
2018-04-22T10:58:40.724Z,937.81
2018-04-22T10:59:40.740Z,937.77
2018-04-22T11:00:40.756Z,937.77
2018-04-22T11:01:40.772Z,937.75
2018-04-22T11:02:40.787Z,937.73
2018-04-22T11:03:40.802Z,937.73
2018-04-22T11:04:40.840Z,937.72
2018-04-22T11:05:40.836Z,937.73
2018-04-22T11:06:40.850Z,937.73
2018-04-22T11:07:40.866Z,937.68
2018-04-22T11:08:40.883Z,937.69
2018-04-22T11:09:40.898Z,937.69
2018-04-22T11:10:40.914Z,937.68
2018-04-22T11:11:40.930Z,937.65
2018-04-22T11:12:40.948Z,937.61
2018-04-22T11:13:40.963Z,937.65
2018-04-22T11:14:40.983Z,937.59
2018-04-22T11:15:40.996Z,937.60
2018-04-22T11:16:41.013Z,937.58
2018-04-22T11:17:41.028Z,937.63
2018-04-22T11:18:41.044Z,937.59
2018-04-22T11:19:41.060Z,937.60
2018-04-22T11:20:41.078Z,937.58
2018-04-22T11:21:41.093Z,937.59
2018-04-22T11:22:41.109Z,937.56
2018-04-22T11:23:41.125Z,937.58
2018-04-22T11:24:41.148Z,937.55
2018-04-22T11:25:41.156Z,937.54
2018-04-22T11:26:41.175Z,937.52
2018-04-22T11:27:41.191Z,937.58
2018-04-22T11:28:41.209Z,937.59
2018-04-22T11:29:41.220Z,937.55
2018-04-22T11:30:41.239Z,937.56
2018-04-22T11:31:41.255Z,937.59
2018-04-22T11:32:41.274Z,937.55
2018-04-22T11:33:41.287Z,937.54
2018-04-22T11:34:41.329Z,937.51
2018-04-22T11:35:41.319Z,937.50
2018-04-22T11:36:41.335Z,937.49
2018-04-22T11:37:41.351Z,937.56
2018-04-22T11:38:41.368Z,937.59
2018-04-22T11:39:41.384Z,937.54
2018-04-22T11:40:41.400Z,937.52
2018-04-22T11:41:41.417Z,937.55
2018-04-22T11:42:41.430Z,937.50
2018-04-22T11:43:41.447Z,937.50
2018-04-22T11:44:41.464Z,937.49
2018-04-22T11:45:41.481Z,937.47
2018-04-22T11:46:41.499Z,937.46
2018-04-22T11:47:41.515Z,937.50
2018-04-22T11:48:41.526Z,937.48
2018-04-22T11:49:41.589Z,937.50
2018-04-22T11:50:41.558Z,937.48
2018-04-22T11:51:41.574Z,937.50
2018-04-22T11:52:41.592Z,937.48
2018-04-22T11:53:41.605Z,937.46
2018-04-22T11:54:41.621Z,937.46
2018-04-22T11:55:41.636Z,937.49
2018-04-22T11:56:41.653Z,937.47
2018-04-22T11:57:41.669Z,937.48
2018-04-22T11:58:41.686Z,937.41
2018-04-22T11:59:41.700Z,937.42
2018-04-22T12:00:41.718Z,937.48
2018-04-22T12:01:41.732Z,937.43
2018-04-22T12:02:41.747Z,937.41
2018-04-22T12:03:41.763Z,937.35
2018-04-22T12:04:41.779Z,937.37
2018-04-22T12:05:41.792Z,937.31
2018-04-22T12:06:41.806Z,937.30
2018-04-22T12:07:41.821Z,937.31
2018-04-22T12:08:41.835Z,937.31
2018-04-22T12:09:41.850Z,937.33
2018-04-22T12:10:41.861Z,937.36
2018-04-22T12:11:41.875Z,937.33
2018-04-22T12:12:41.890Z,937.30
2018-04-22T12:13:41.903Z,937.29
2018-04-22T12:14:41.972Z,937.29
2018-04-22T12:15:41.931Z,937.29
2018-04-22T12:16:41.945Z,937.25
2018-04-22T12:17:41.958Z,937.27
2018-04-22T12:18:41.971Z,937.23
2018-04-22T12:19:41.986Z,937.24
2018-04-22T12:20:42.064Z,937.19
2018-04-22T12:21:42.015Z,937.25
2018-04-22T12:22:42.028Z,937.28
2018-04-22T12:23:42.043Z,937.24
2018-04-22T12:24:42.057Z,937.29
2018-04-22T12:25:42.070Z,937.32
2018-04-22T12:26:42.085Z,937.25
2018-04-22T12:27:42.099Z,937.23
2018-04-22T12:28:42.114Z,937.22
2018-04-22T12:29:42.126Z,937.23
2018-04-22T12:30:42.140Z,937.27